<?xml version="1.0" encoding="UTF-8" standalone="no" ?>
<gpx xmlns="http://www.topografix.com/GPX/1/1" xmlns:xsi="http://www.w3.org/2001/XMLSchema-instance" xsi:schemaLocation="http://www.topografix.com/GPX/1/1 http://www.topografix.com/GPX/1/1/gpx.xsd" version="1.1" creator="VisuGPX - https://www.visugpx.com">
  <metadata>
    <name>10360329-Le Vaudreuil St Eloi</name>
  </metadata>
  <trk>
    <name><![CDATA[10360329-Le Vaudreuil St Eloi]]></name>
    <trkseg>
      <trkpt lat="49.27516" lon="1.22416">
        <ele>10</ele>
        <time>2019-08-11T15:32:28Z</time>
      </trkpt>
      <trkpt lat="49.27453" lon="1.22398">
        <ele>9</ele>
        <time>2019-08-11T15:33:54Z</time>
      </trkpt>
      <trkpt lat="49.27425" lon="1.22247">
        <ele>7</ele>
        <time>2019-08-11T15:36:10Z</time>
      </trkpt>
      <trkpt lat="49.27604" lon="1.2204">
        <ele>9</ele>
        <time>2019-08-11T15:41:09Z</time>
      </trkpt>
      <trkpt lat="49.27873" lon="1.21986">
        <ele>9</ele>
        <time>2019-08-11T15:47:11Z</time>
      </trkpt>
      <trkpt lat="49.28051" lon="1.21767">
        <ele>8</ele>
        <time>2019-08-11T15:52:16Z</time>
      </trkpt>
      <trkpt lat="49.28526" lon="1.21488">
        <ele>6</ele>
        <time>2019-08-11T16:03:35Z</time>
      </trkpt>
      <trkpt lat="49.28633" lon="1.21354">
        <ele>6</ele>
        <time>2019-08-11T16:06:39Z</time>
      </trkpt>
      <trkpt lat="49.28684" lon="1.21136">
        <ele>7</ele>
        <time>2019-08-11T16:10:01Z</time>
      </trkpt>
      <trkpt lat="49.28791" lon="1.21021">
        <ele>8</ele>
        <time>2019-08-11T16:12:55Z</time>
      </trkpt>
      <trkpt lat="49.28748" lon="1.20863">
        <ele>10</ele>
        <time>2019-08-11T16:15:24Z</time>
      </trkpt>
      <trkpt lat="49.29045" lon="1.20632">
        <ele>8</ele>
        <time>2019-08-11T16:22:49Z</time>
      </trkpt>
      <trkpt lat="49.28981" lon="1.20401">
        <ele>10</ele>
        <time>2019-08-11T16:26:27Z</time>
      </trkpt>
      <trkpt lat="49.2889" lon="1.20401">
        <ele>10</ele>
        <time>2019-08-11T16:28:29Z</time>
      </trkpt>
      <trkpt lat="49.28878" lon="1.19983">
        <ele>35</ele>
        <time>2019-08-11T16:34:33Z</time>
      </trkpt>
      <trkpt lat="49.28839" lon="1.19685">
        <ele>71</ele>
        <time>2019-08-11T16:38:57Z</time>
      </trkpt>
      <trkpt lat="49.2879" lon="1.19436">
        <ele>87</ele>
        <time>2019-08-11T16:42:44Z</time>
      </trkpt>
      <trkpt lat="49.2875" lon="1.19551">
        <ele>80</ele>
        <time>2019-08-11T16:44:37Z</time>
      </trkpt>
      <trkpt lat="49.28513" lon="1.19393">
        <ele>90</ele>
        <time>2019-08-11T16:50:22Z</time>
      </trkpt>
      <trkpt lat="49.28608" lon="1.18525">
        <ele>89</ele>
        <time>2019-08-11T17:03:08Z</time>
      </trkpt>
      <trkpt lat="49.28414" lon="1.18161">
        <ele>95</ele>
        <time>2019-08-11T17:09:57Z</time>
      </trkpt>
      <trkpt lat="49.28481" lon="1.17603">
        <ele>92</ele>
        <time>2019-08-11T17:18:11Z</time>
      </trkpt>
      <trkpt lat="49.28437" lon="1.17378">
        <ele>91</ele>
        <time>2019-08-11T17:21:36Z</time>
      </trkpt>
      <trkpt lat="49.28507" lon="1.16486">
        <ele>77</ele>
        <time>2019-08-11T17:34:38Z</time>
      </trkpt>
      <trkpt lat="49.28051" lon="1.16436">
        <ele>105</ele>
        <time>2019-08-11T17:44:48Z</time>
      </trkpt>
      <trkpt lat="49.28238" lon="1.14422">
        <ele>88</ele>
        <time>2019-08-11T18:14:19Z</time>
      </trkpt>
      <trkpt lat="49.2796" lon="1.14112">
        <ele>100</ele>
        <time>2019-08-11T18:21:57Z</time>
      </trkpt>
      <trkpt lat="49.2771" lon="1.14072">
        <ele>114</ele>
        <time>2019-08-11T18:27:33Z</time>
      </trkpt>
      <trkpt lat="49.27684" lon="1.14022">
        <ele>122</ele>
        <time>2019-08-11T18:28:28Z</time>
      </trkpt>
      <trkpt lat="49.27842" lon="1.13778">
        <ele>119</ele>
        <time>2019-08-11T18:33:28Z</time>
      </trkpt>
      <trkpt lat="49.27906" lon="1.13289">
        <ele>115</ele>
        <time>2019-08-11T18:40:42Z</time>
      </trkpt>
      <trkpt lat="49.27783" lon="1.13053">
        <ele>110</ele>
        <time>2019-08-11T18:45:05Z</time>
      </trkpt>
      <trkpt lat="49.27574" lon="1.12801">
        <ele>127</ele>
        <time>2019-08-11T18:51:00Z</time>
      </trkpt>
      <trkpt lat="49.27653" lon="1.11982">
        <ele>133</ele>
        <time>2019-08-11T19:03:01Z</time>
      </trkpt>
      <trkpt lat="49.2744" lon="1.11891">
        <ele>107</ele>
        <time>2019-08-11T19:07:56Z</time>
      </trkpt>
      <trkpt lat="49.27459" lon="1.11678">
        <ele>99</ele>
        <time>2019-08-11T19:11:03Z</time>
      </trkpt>
      <trkpt lat="49.2725" lon="1.11665">
        <ele>125</ele>
        <time>2019-08-11T19:15:42Z</time>
      </trkpt>
      <trkpt lat="49.27293" lon="1.11215">
        <ele>128</ele>
        <time>2019-08-11T19:22:18Z</time>
      </trkpt>
      <trkpt lat="49.27363" lon="1.11122">
        <ele>127</ele>
        <time>2019-08-11T19:24:22Z</time>
      </trkpt>
      <trkpt lat="49.27291" lon="1.10799">
        <ele>126</ele>
        <time>2019-08-11T19:29:19Z</time>
      </trkpt>
      <trkpt lat="49.27093" lon="1.10509">
        <ele>126</ele>
        <time>2019-08-11T19:35:24Z</time>
      </trkpt>
      <trkpt lat="49.27198" lon="1.10393">
        <ele>126</ele>
        <time>2019-08-11T19:38:17Z</time>
      </trkpt>
      <trkpt lat="49.27161" lon="1.09931">
        <ele>125</ele>
        <time>2019-08-11T19:45:02Z</time>
      </trkpt>
      <trkpt lat="49.27121" lon="1.10011">
        <ele>127</ele>
        <time>2019-08-11T19:46:30Z</time>
      </trkpt>
      <trkpt lat="49.2705" lon="1.10029">
        <ele>131</ele>
        <time>2019-08-11T19:48:06Z</time>
      </trkpt>
      <trkpt lat="49.26406" lon="1.09214">
        <ele>101</ele>
        <time>2019-08-11T20:06:41Z</time>
      </trkpt>
      <trkpt lat="49.26618" lon="1.08975">
        <ele>95</ele>
        <time>2019-08-11T20:12:32Z</time>
      </trkpt>
      <trkpt lat="49.26535" lon="1.08901">
        <ele>104</ele>
        <time>2019-08-11T20:14:40Z</time>
      </trkpt>
      <trkpt lat="49.26539" lon="1.08792">
        <ele>117</ele>
        <time>2019-08-11T20:16:15Z</time>
      </trkpt>
      <trkpt lat="49.26304" lon="1.08733">
        <ele>129</ele>
        <time>2019-08-11T20:21:33Z</time>
      </trkpt>
      <trkpt lat="49.26035" lon="1.08378">
        <ele>131</ele>
        <time>2019-08-11T20:29:27Z</time>
      </trkpt>
      <trkpt lat="49.25834" lon="1.0812">
        <ele>132</ele>
        <time>2019-08-11T20:35:16Z</time>
      </trkpt>
      <trkpt lat="49.26016" lon="1.07787">
        <ele>133</ele>
        <time>2019-08-11T20:41:35Z</time>
      </trkpt>
      <trkpt lat="49.25705" lon="1.07435">
        <ele>134</ele>
        <time>2019-08-11T20:50:11Z</time>
      </trkpt>
      <trkpt lat="49.26103" lon="1.06461">
        <ele>93</ele>
        <time>2019-08-11T21:06:52Z</time>
      </trkpt>
      <trkpt lat="49.26368" lon="1.05612">
        <ele>59</ele>
        <time>2019-08-11T21:20:31Z</time>
      </trkpt>
      <trkpt lat="49.26477" lon="1.05404">
        <ele>39</ele>
        <time>2019-08-11T21:24:23Z</time>
      </trkpt>
      <trkpt lat="49.26501" lon="1.05269">
        <ele>35</ele>
        <time>2019-08-11T21:26:25Z</time>
      </trkpt>
      <trkpt lat="49.26525" lon="1.05139">
        <ele>41</ele>
        <time>2019-08-11T21:28:23Z</time>
      </trkpt>
      <trkpt lat="49.26311" lon="1.05203">
        <ele>47</ele>
        <time>2019-08-11T21:33:14Z</time>
      </trkpt>
      <trkpt lat="49.26079" lon="1.05021">
        <ele>69</ele>
        <time>2019-08-11T21:39:02Z</time>
      </trkpt>
      <trkpt lat="49.26151" lon="1.04957">
        <ele>69</ele>
        <time>2019-08-11T21:40:53Z</time>
      </trkpt>
      <trkpt lat="49.25701" lon="1.04209">
        <ele>110</ele>
        <time>2019-08-11T21:55:39Z</time>
      </trkpt>
      <trkpt lat="49.2544" lon="1.03704">
        <ele>113</ele>
        <time>2019-08-11T22:05:00Z</time>
      </trkpt>
      <trkpt lat="49.25172" lon="1.03813">
        <ele>123</ele>
        <time>2019-08-11T22:11:10Z</time>
      </trkpt>
      <trkpt lat="49.25004" lon="1.03753">
        <ele>118</ele>
        <time>2019-08-11T22:15:00Z</time>
      </trkpt>
      <trkpt lat="49.2477" lon="1.03243">
        <ele>129</ele>
        <time>2019-08-11T22:24:03Z</time>
      </trkpt>
      <trkpt lat="49.25027" lon="1.02957">
        <ele>123</ele>
        <time>2019-08-11T22:31:07Z</time>
      </trkpt>
      <trkpt lat="49.24873" lon="1.02805">
        <ele>101</ele>
        <time>2019-08-11T22:35:11Z</time>
      </trkpt>
      <trkpt lat="49.24804" lon="1.0259">
        <ele>59</ele>
        <time>2019-08-11T22:38:40Z</time>
      </trkpt>
      <trkpt lat="49.24716" lon="1.02553">
        <ele>67</ele>
        <time>2019-08-11T22:40:42Z</time>
      </trkpt>
      <trkpt lat="49.24514" lon="1.02528">
        <ele>102</ele>
        <time>2019-08-11T22:45:12Z</time>
      </trkpt>
      <trkpt lat="49.24431" lon="1.02455">
        <ele>105</ele>
        <time>2019-08-11T22:47:20Z</time>
      </trkpt>
      <trkpt lat="49.2425" lon="1.02423">
        <ele>105</ele>
        <time>2019-08-11T22:51:23Z</time>
      </trkpt>
      <trkpt lat="49.24151" lon="1.02257">
        <ele>88</ele>
        <time>2019-08-11T22:54:39Z</time>
      </trkpt>
      <trkpt lat="49.24106" lon="1.02246">
        <ele>88</ele>
        <time>2019-08-11T22:55:40Z</time>
      </trkpt>
      <trkpt lat="49.23789" lon="1.01939">
        <ele>137</ele>
        <time>2019-08-11T23:04:00Z</time>
      </trkpt>
      <trkpt lat="49.23631" lon="1.01798">
        <ele>142</ele>
        <time>2019-08-11T23:08:04Z</time>
      </trkpt>
      <trkpt lat="49.23421" lon="1.01636">
        <ele>144</ele>
        <time>2019-08-11T23:13:18Z</time>
      </trkpt>
      <trkpt lat="49.23454" lon="1.01391">
        <ele>148</ele>
        <time>2019-08-11T23:16:56Z</time>
      </trkpt>
      <trkpt lat="49.23373" lon="1.01355">
        <ele>149</ele>
        <time>2019-08-11T23:18:49Z</time>
      </trkpt>
      <trkpt lat="49.23133" lon="1.01131">
        <ele>143</ele>
        <time>2019-08-11T23:25:04Z</time>
      </trkpt>
      <trkpt lat="49.2293" lon="1.01037">
        <ele>152</ele>
        <time>2019-08-11T23:29:47Z</time>
      </trkpt>
      <trkpt lat="49.22839" lon="1.00842">
        <ele>148</ele>
        <time>2019-08-11T23:33:16Z</time>
      </trkpt>
      <trkpt lat="49.22763" lon="1.00821">
        <ele>150</ele>
        <time>2019-08-11T23:34:59Z</time>
      </trkpt>
      <trkpt lat="49.22735" lon="1.00723">
        <ele>150</ele>
        <time>2019-08-11T23:36:32Z</time>
      </trkpt>
      <trkpt lat="49.22768" lon="1.00615">
        <ele>150</ele>
        <time>2019-08-11T23:38:16Z</time>
      </trkpt>
      <trkpt lat="49.22699" lon="1.00279">
        <ele>151</ele>
        <time>2019-08-11T23:43:23Z</time>
      </trkpt>
      <trkpt lat="49.22768" lon="1.00189">
        <ele>150</ele>
        <time>2019-08-11T23:45:24Z</time>
      </trkpt>
      <trkpt lat="49.22749" lon="1.00092">
        <ele>153</ele>
        <time>2019-08-11T23:46:52Z</time>
      </trkpt>
      <trkpt lat="49.22777" lon="0.99919">
        <ele>152</ele>
        <time>2019-08-11T23:49:27Z</time>
      </trkpt>
      <trkpt lat="49.2282" lon="0.99478">
        <ele>155</ele>
        <time>2019-08-11T23:55:56Z</time>
      </trkpt>
      <trkpt lat="49.22886" lon="0.99406">
        <ele>156</ele>
        <time>2019-08-11T23:57:44Z</time>
      </trkpt>
      <trkpt lat="49.22883" lon="0.9933">
        <ele>157</ele>
        <time>2019-08-11T23:58:50Z</time>
      </trkpt>
      <trkpt lat="49.22857" lon="0.99038">
        <ele>157</ele>
        <time>2019-08-12T00:03:07Z</time>
      </trkpt>
      <trkpt lat="49.22928" lon="0.99168">
        <ele>157</ele>
        <time>2019-08-12T00:05:35Z</time>
      </trkpt>
      <trkpt lat="49.23253" lon="0.98641">
        <ele>152</ele>
        <time>2019-08-12T00:16:07Z</time>
      </trkpt>
      <trkpt lat="49.2331" lon="0.98446">
        <ele>151</ele>
        <time>2019-08-12T00:19:13Z</time>
      </trkpt>
      <trkpt lat="49.2325" lon="0.984">
        <ele>153</ele>
        <time>2019-08-12T00:20:42Z</time>
      </trkpt>
      <trkpt lat="49.23197" lon="0.97956">
        <ele>152</ele>
        <time>2019-08-12T00:27:16Z</time>
      </trkpt>
      <trkpt lat="49.2329" lon="0.97819">
        <ele>151</ele>
        <time>2019-08-12T00:30:08Z</time>
      </trkpt>
      <trkpt lat="49.23207" lon="0.97706">
        <ele>149</ele>
        <time>2019-08-12T00:32:36Z</time>
      </trkpt>
      <trkpt lat="49.23083" lon="0.97482">
        <ele>150</ele>
        <time>2019-08-12T00:36:52Z</time>
      </trkpt>
      <trkpt lat="49.22862" lon="0.96768">
        <ele>160</ele>
        <time>2019-08-12T00:48:20Z</time>
      </trkpt>
      <trkpt lat="49.22677" lon="0.96482">
        <ele>160</ele>
        <time>2019-08-12T00:54:11Z</time>
      </trkpt>
      <trkpt lat="49.22687" lon="0.9566">
        <ele>159</ele>
        <time>2019-08-12T01:06:08Z</time>
      </trkpt>
      <trkpt lat="49.22767" lon="0.95241">
        <ele>157</ele>
        <time>2019-08-12T01:12:28Z</time>
      </trkpt>
      <trkpt lat="49.22773" lon="0.94792">
        <ele>152</ele>
        <time>2019-08-12T01:19:00Z</time>
      </trkpt>
      <trkpt lat="49.22737" lon="0.94415">
        <ele>156</ele>
        <time>2019-08-12T01:24:32Z</time>
      </trkpt>
      <trkpt lat="49.22864" lon="0.94396">
        <ele>157</ele>
        <time>2019-08-12T01:27:22Z</time>
      </trkpt>
      <trkpt lat="49.23034" lon="0.94442">
        <ele>156</ele>
        <time>2019-08-12T01:31:12Z</time>
      </trkpt>
      <trkpt lat="49.23058" lon="0.94289">
        <ele>145</ele>
        <time>2019-08-12T01:33:29Z</time>
      </trkpt>
      <trkpt lat="49.23201" lon="0.9433">
        <ele>141</ele>
        <time>2019-08-12T01:36:44Z</time>
      </trkpt>
      <trkpt lat="49.23504" lon="0.94111">
        <ele>121</ele>
        <time>2019-08-12T01:44:11Z</time>
      </trkpt>
      <trkpt lat="49.23469" lon="0.93731">
        <ele>123</ele>
        <time>2019-08-12T01:49:45Z</time>
      </trkpt>
      <trkpt lat="49.23533" lon="0.93562">
        <ele>126</ele>
        <time>2019-08-12T01:52:35Z</time>
      </trkpt>
      <trkpt lat="49.23676" lon="0.93644">
        <ele>136</ele>
        <time>2019-08-12T01:55:59Z</time>
      </trkpt>
      <trkpt lat="49.23743" lon="0.93527">
        <ele>143</ele>
        <time>2019-08-12T01:58:15Z</time>
      </trkpt>
      <trkpt lat="49.23763" lon="0.92986">
        <ele>130</ele>
        <time>2019-08-12T02:06:07Z</time>
      </trkpt>
      <trkpt lat="49.23846" lon="0.92588">
        <ele>134</ele>
        <time>2019-08-12T02:12:11Z</time>
      </trkpt>
      <trkpt lat="49.24066" lon="0.91725">
        <ele>158</ele>
        <time>2019-08-12T02:25:38Z</time>
      </trkpt>
      <trkpt lat="49.24117" lon="0.91002">
        <ele>160</ele>
        <time>2019-08-12T02:36:12Z</time>
      </trkpt>
      <trkpt lat="49.2416" lon="0.90839">
        <ele>161</ele>
        <time>2019-08-12T02:38:45Z</time>
      </trkpt>
      <trkpt lat="49.24147" lon="0.90425">
        <ele>157</ele>
        <time>2019-08-12T02:44:46Z</time>
      </trkpt>
      <trkpt lat="49.24233" lon="0.90201">
        <ele>157</ele>
        <time>2019-08-12T02:48:32Z</time>
      </trkpt>
      <trkpt lat="49.24403" lon="0.90231">
        <ele>164</ele>
        <time>2019-08-12T02:52:21Z</time>
      </trkpt>
      <trkpt lat="49.2435" lon="0.89731">
        <ele>159</ele>
        <time>2019-08-12T02:59:42Z</time>
      </trkpt>
      <trkpt lat="49.24573" lon="0.8966">
        <ele>163</ele>
        <time>2019-08-12T03:04:46Z</time>
      </trkpt>
      <trkpt lat="49.24557" lon="0.89461">
        <ele>166</ele>
        <time>2019-08-12T03:07:41Z</time>
      </trkpt>
      <trkpt lat="49.24629" lon="0.88236">
        <ele>175</ele>
        <time>2019-08-12T03:25:32Z</time>
      </trkpt>
      <trkpt lat="49.24366" lon="0.87649">
        <ele>161</ele>
        <time>2019-08-12T03:35:52Z</time>
      </trkpt>
      <trkpt lat="49.24316" lon="0.87603">
        <ele>159</ele>
        <time>2019-08-12T03:37:10Z</time>
      </trkpt>
      <trkpt lat="49.24418" lon="0.86509">
        <ele>153</ele>
        <time>2019-08-12T03:53:13Z</time>
      </trkpt>
      <trkpt lat="49.24079" lon="0.86321">
        <ele>146</ele>
        <time>2019-08-12T04:01:14Z</time>
      </trkpt>
      <trkpt lat="49.24211" lon="0.85975">
        <ele>146</ele>
        <time>2019-08-12T04:07:03Z</time>
      </trkpt>
      <trkpt lat="49.24239" lon="0.85715">
        <ele>148</ele>
        <time>2019-08-12T04:10:53Z</time>
      </trkpt>
      <trkpt lat="49.23692" lon="0.85722">
        <ele>152</ele>
        <time>2019-08-12T04:23:03Z</time>
      </trkpt>
      <trkpt lat="49.23689" lon="0.8508">
        <ele>154</ele>
        <time>2019-08-12T04:32:22Z</time>
      </trkpt>
      <trkpt lat="49.23161" lon="0.84784">
        <ele>151</ele>
        <time>2019-08-12T04:44:52Z</time>
      </trkpt>
      <trkpt lat="49.23147" lon="0.84597">
        <ele>147</ele>
        <time>2019-08-12T04:47:36Z</time>
      </trkpt>
      <trkpt lat="49.23114" lon="0.83644">
        <ele>145</ele>
        <time>2019-08-12T05:01:28Z</time>
      </trkpt>
      <trkpt lat="49.22954" lon="0.83788">
        <ele>145</ele>
        <time>2019-08-12T05:05:36Z</time>
      </trkpt>
      <trkpt lat="49.2301" lon="0.83601">
        <ele>146</ele>
        <time>2019-08-12T05:08:35Z</time>
      </trkpt>
      <trkpt lat="49.2267" lon="0.82299">
        <ele>153</ele>
        <time>2019-08-12T05:28:57Z</time>
      </trkpt>
      <trkpt lat="49.22456" lon="0.81868">
        <ele>150</ele>
        <time>2019-08-12T05:36:49Z</time>
      </trkpt>
      <trkpt lat="49.22499" lon="0.81705">
        <ele>151</ele>
        <time>2019-08-12T05:39:22Z</time>
      </trkpt>
      <trkpt lat="49.2244" lon="0.81565">
        <ele>150</ele>
        <time>2019-08-12T05:41:47Z</time>
      </trkpt>
      <trkpt lat="49.22471" lon="0.81437">
        <ele>152</ele>
        <time>2019-08-12T05:43:46Z</time>
      </trkpt>
      <trkpt lat="49.22444" lon="0.81328">
        <ele>151</ele>
        <time>2019-08-12T05:45:28Z</time>
      </trkpt>
      <trkpt lat="49.22507" lon="0.80891">
        <ele>151</ele>
        <time>2019-08-12T05:51:58Z</time>
      </trkpt>
      <trkpt lat="49.22594" lon="0.80703">
        <ele>150</ele>
        <time>2019-08-12T05:55:19Z</time>
      </trkpt>
      <trkpt lat="49.22503" lon="0.80133">
        <ele>144</ele>
        <time>2019-08-12T06:03:50Z</time>
      </trkpt>
      <trkpt lat="49.22557" lon="0.80104">
        <ele>143</ele>
        <time>2019-08-12T06:05:06Z</time>
      </trkpt>
      <trkpt lat="49.2254" lon="0.80076">
        <ele>142</ele>
        <time>2019-08-12T06:05:40Z</time>
      </trkpt>
      <trkpt lat="49.22392" lon="0.79653">
        <ele>142</ele>
        <time>2019-08-12T06:12:38Z</time>
      </trkpt>
      <trkpt lat="49.22537" lon="0.79599">
        <ele>134</ele>
        <time>2019-08-12T06:15:57Z</time>
      </trkpt>
      <trkpt lat="49.22626" lon="0.79659">
        <ele>131</ele>
        <time>2019-08-12T06:18:07Z</time>
      </trkpt>
    </trkseg>
  </trk>
</gpx>